sensor_id;sensor_type;location;lat;lon;timestamp;temperature;humidity
55203;DHT22;41077;52.956;6.796;2022-10-04T00:02:16;11.80;99.90
55203;DHT22;41077;52.956;6.796;2022-10-04T00:04:53;11.80;99.90
55203;DHT22;41077;52.956;6.796;2022-10-04T00:07:32;11.80;99.90
55203;DHT22;41077;52.956;6.796;2022-10-04T00:10:15;11.80;99.90
55203;DHT22;41077;52.956;6.796;2022-10-04T00:12:47;11.80;99.90
55203;DHT22;41077;52.956;6.796;2022-10-04T00:15:29;11.80;99.90
55203;DHT22;41077;52.956;6.796;2022-10-04T00:18:30;11.80;99.90
55203;DHT22;41077;52.956;6.796;2022-10-04T00:21:00;11.80;99.90
55203;DHT22;41077;52.956;6.796;2022-10-04T00:23:41;11.80;99.90
55203;DHT22;41077;52.956;6.796;2022-10-04T00:26:14;11.90;99.90
55203;DHT22;41077;52.956;6.796;2022-10-04T00:37:02;11.80;99.90
55203;DHT22;41077;52.956;6.796;2022-10-04T00:39:42;11.80;99.90
55203;DHT22;41077;52.956;6.796;2022-10-04T00:50:15;11.80;99.90
55203;DHT22;41077;52.956;6.796;2022-10-04T00:52:46;11.80;99.90
55203;DHT22;41077;52.956;6.796;2022-10-04T00:55:21;11.80;99.90
55203;DHT22;41077;52.956;6.796;2022-10-04T00:57:52;11.80;99.90
55203;DHT22;41077;52.956;6.796;2022-10-04T01:00:20;11.80;99.90
55203;DHT22;41077;52.956;6.796;2022-10-04T01:02:51;11.80;99.90
55203;DHT22;41077;52.956;6.796;2022-10-04T01:05:25;11.80;99.90
55203;DHT22;41077;52.956;6.796;2022-10-04T01:10:27;11.80;99.90
55203;DHT22;41077;52.956;6.796;2022-10-04T01:15:47;11.80;99.90
55203;DHT22;41077;52.956;6.796;2022-10-04T01:20:56;11.80;99.90
55203;DHT22;41077;52.956;6.796;2022-10-04T01:23:35;11.80;99.90
55203;DHT22;41077;52.956;6.796;2022-10-04T01:26:04;11.80;99.90
55203;DHT22;41077;52.956;6.796;2022-10-04T01:28:32;11.70;99.90
55203;DHT22;41077;52.956;6.796;2022-10-04T01:30:58;11.80;99.90
55203;DHT22;41077;52.956;6.796;2022-10-04T01:33:24;11.80;99.90
55203;DHT22;41077;52.956;6.796;2022-10-04T01:35:50;11.70;99.90
55203;DHT22;41077;52.956;6.796;2022-10-04T01:38:16;11.70;99.90
55203;DHT22;41077;52.956;6.796;2022-10-04T01:40:48;11.70;99.90
55203;DHT22;41077;52.956;6.796;2022-10-04T01:43:21;11.70;99.90
55203;DHT22;41077;52.956;6.796;2022-10-04T01:45:53;11.70;99.90
55203;DHT22;41077;52.956;6.796;2022-10-04T01:48:23;11.70;99.90
55203;DHT22;41077;52.956;6.796;2022-10-04T01:50:56;11.70;99.90
55203;DHT22;41077;52.956;6.796;2022-10-04T01:55:53;11.70;99.90
55203;DHT22;41077;52.956;6.796;2022-10-04T01:58:34;11.70;99.90
55203;DHT22;41077;52.956;6.796;2022-10-04T02:01:12;11.70;99.90
55203;DHT22;41077;52.956;6.796;2022-10-04T02:04:03;11.70;99.90
55203;DHT22;41077;52.956;6.796;2022-10-04T02:06:35;11.70;99.90
55203;DHT22;41077;52.956;6.796;2022-10-04T02:09:07;11.70;99.90
55203;DHT22;41077;52.956;6.796;2022-10-04T02:11:35;11.70;99.90
55203;DHT22;41077;52.956;6.796;2022-10-04T02:14:02;11.70;99.90
55203;DHT22;41077;52.956;6.796;2022-10-04T02:16:34;11.70;99.90
55203;DHT22;41077;52.956;6.796;2022-10-04T02:19:01;11.70;99.90
55203;DHT22;41077;52.956;6.796;2022-10-04T02:21:28;11.70;99.90
55203;DHT22;41077;52.956;6.796;2022-10-04T02:23:54;11.70;99.90
55203;DHT22;41077;52.956;6.796;2022-10-04T02:26:21;11.70;99.90
55203;DHT22;41077;52.956;6.796;2022-10-04T02:28:48;11.70;99.90
55203;DHT22;41077;52.956;6.796;2022-10-04T02:31:13;11.70;99.90
55203;DHT22;41077;52.956;6.796;2022-10-04T02:34:02;11.70;99.90
55203;DHT22;41077;52.956;6.796;2022-10-04T02:36:28;11.70;99.90
55203;DHT22;41077;52.956;6.796;2022-10-04T02:39:03;11.70;99.90
55203;DHT22;41077;52.956;6.796;2022-10-04T02:41:37;11.60;99.90
55203;DHT22;41077;52.956;6.796;2022-10-04T02:44:23;11.60;99.90
55203;DHT22;41077;52.956;6.796;2022-10-04T02:49:43;11.60;99.90
55203;DHT22;41077;52.956;6.796;2022-10-04T02:52:14;11.60;99.90
55203;DHT22;41077;52.956;6.796;2022-10-04T02:57:34;11.50;99.90
55203;DHT22;41077;52.956;6.796;2022-10-04T03:05:32;11.40;99.90
55203;DHT22;41077;52.956;6.796;2022-10-04T03:07:58;11.40;99.90
55203;DHT22;41077;52.956;6.796;2022-10-04T03:10:25;11.40;99.90
55203;DHT22;41077;52.956;6.796;2022-10-04T03:12:51;11.30;99.90
55203;DHT22;41077;52.956;6.796;2022-10-04T03:15:18;11.30;99.90
55203;DHT22;41077;52.956;6.796;2022-10-04T03:17:45;11.30;99.90
55203;DHT22;41077;52.956;6.796;2022-10-04T03:20:12;11.30;99.90
55203;DHT22;41077;52.956;6.796;2022-10-04T03:22:43;11.30;99.90
55203;DHT22;41077;52.956;6.796;2022-10-04T03:25:29;11.30;99.90
55203;DHT22;41077;52.956;6.796;2022-10-04T03:28:00;11.30;99.90
55203;DHT22;41077;52.956;6.796;2022-10-04T03:30:27;11.30;99.90
55203;DHT22;41077;52.956;6.796;2022-10-04T03:32:53;11.30;99.90
55203;DHT22;41077;52.956;6.796;2022-10-04T03:35:31;11.30;99.90
55203;DHT22;41077;52.956;6.796;2022-10-04T03:37:58;11.30;99.90
55203;DHT22;41077;52.956;6.796;2022-10-04T03:40:27;11.30;99.90
55203;DHT22;41077;52.956;6.796;2022-10-04T03:42:54;11.30;99.90
55203;DHT22;41077;52.956;6.796;2022-10-04T03:45:21;11.30;99.90
55203;DHT22;41077;52.956;6.796;2022-10-04T03:47:49;11.30;99.90
55203;DHT22;41077;52.956;6.796;2022-10-04T03:50:24;11.30;99.90
55203;DHT22;41077;52.956;6.796;2022-10-04T03:52:56;11.30;99.90
55203;DHT22;41077;52.956;6.796;2022-10-04T03:55:27;11.20;99.90
55203;DHT22;41077;52.956;6.796;2022-10-04T03:57:56;11.30;99.90
55203;DHT22;41077;52.956;6.796;2022-10-04T04:00:23;11.30;99.90
55203;DHT22;41077;52.956;6.796;2022-10-04T04:02:58;11.20;99.90
55203;DHT22;41077;52.956;6.796;2022-10-04T04:05:31;11.30;99.90
55203;DHT22;41077;52.956;6.796;2022-10-04T04:08:16;11.20;99.90
55203;DHT22;41077;52.956;6.796;2022-10-04T04:10:45;11.20;99.90
55203;DHT22;41077;52.956;6.796;2022-10-04T04:13:20;11.30;99.90
55203;DHT22;41077;52.956;6.796;2022-10-04T04:15:48;11.20;99.90
55203;DHT22;41077;52.956;6.796;2022-10-04T04:18:24;11.20;99.90
55203;DHT22;41077;52.956;6.796;2022-10-04T04:20:54;11.10;99.90
55203;DHT22;41077;52.956;6.796;2022-10-04T04:26:32;11.10;99.90
55203;DHT22;41077;52.956;6.796;2022-10-04T04:31:51;11.10;99.90
55203;DHT22;41077;52.956;6.796;2022-10-04T04:34:23;11.00;99.90
55203;DHT22;41077;52.956;6.796;2022-10-04T04:36:49;11.10;99.90
55203;DHT22;41077;52.956;6.796;2022-10-04T04:39:21;11.10;99.90
55203;DHT22;41077;52.956;6.796;2022-10-04T04:44:36;11.00;99.90
55203;DHT22;41077;52.956;6.796;2022-10-04T04:47:08;11.10;99.90
55203;DHT22;41077;52.956;6.796;2022-10-04T04:49:37;11.00;99.90
55203;DHT22;41077;52.956;6.796;2022-10-04T04:52:04;11.00;99.90
55203;DHT22;41077;52.956;6.796;2022-10-04T04:54:30;11.00;99.90
55203;DHT22;41077;52.956;6.796;2022-10-04T04:56:56;11.00;99.90
55203;DHT22;41077;52.956;6.796;2022-10-04T04:59:23;11.00;99.90
55203;DHT22;41077;52.956;6.796;2022-10-04T05:01:49;11.00;99.90
55203;DHT22;41077;52.956;6.796;2022-10-04T05:04:21;11.00;99.90
55203;DHT22;41077;52.956;6.796;2022-10-04T05:07:15;10.90;99.90
55203;DHT22;41077;52.956;6.796;2022-10-04T05:09:41;10.80;99.90
55203;DHT22;41077;52.956;6.796;2022-10-04T05:12:17;10.90;99.90
55203;DHT22;41077;52.956;6.796;2022-10-04T05:14:52;10.90;99.90
55203;DHT22;41077;52.956;6.796;2022-10-04T05:17:32;10.80;99.90
55203;DHT22;41077;52.956;6.796;2022-10-04T05:20:00;10.80;99.90
55203;DHT22;41077;52.956;6.796;2022-10-04T05:22:28;10.80;99.90
55203;DHT22;41077;52.956;6.796;2022-10-04T05:24:57;10.80;99.90
55203;DHT22;41077;52.956;6.796;2022-10-04T05:27:31;10.70;99.90
55203;DHT22;41077;52.956;6.796;2022-10-04T05:33:01;10.70;99.90
55203;DHT22;41077;52.956;6.796;2022-10-04T05:35:49;10.70;99.90
55203;DHT22;41077;52.956;6.796;2022-10-04T05:38:36;10.70;99.90
55203;DHT22;41077;52.956;6.796;2022-10-04T05:41:15;10.70;99.90
55203;DHT22;41077;52.956;6.796;2022-10-04T05:43:47;10.70;99.90
55203;DHT22;41077;52.956;6.796;2022-10-04T05:46:30;10.60;99.90
55203;DHT22;41077;52.956;6.796;2022-10-04T05:49:09;10.60;99.90
55203;DHT22;41077;52.956;6.796;2022-10-04T05:51:58;10.60;99.90
55203;DHT22;41077;52.956;6.796;2022-10-04T05:54:29;10.60;99.90
55203;DHT22;41077;52.956;6.796;2022-10-04T05:57:15;10.60;99.90
55203;DHT22;41077;52.956;6.796;2022-10-04T06:05:16;10.60;99.90
55203;DHT22;41077;52.956;6.796;2022-10-04T06:16:46;10.60;99.90
55203;DHT22;41077;52.956;6.796;2022-10-04T06:22:17;10.60;99.90
55203;DHT22;41077;52.956;6.796;2022-10-04T06:24:55;10.60;99.90
55203;DHT22;41077;52.956;6.796;2022-10-04T06:27:27;10.60;99.90
55203;DHT22;41077;52.956;6.796;2022-10-04T06:30:05;10.60;99.90
55203;DHT22;41077;52.956;6.796;2022-10-04T06:38:29;10.60;99.90
55203;DHT22;41077;52.956;6.796;2022-10-04T06:44:25;10.60;99.90
55203;DHT22;41077;52.956;6.796;2022-10-04T06:50:23;10.70;99.90
55203;DHT22;41077;52.956;6.796;2022-10-04T07:01:01;10.80;99.90
55203;DHT22;41077;52.956;6.796;2022-10-04T07:03:36;10.80;99.90
55203;DHT22;41077;52.956;6.796;2022-10-04T07:06:04;10.80;99.90
55203;DHT22;41077;52.956;6.796;2022-10-04T07:08:49;10.90;99.90
55203;DHT22;41077;52.956;6.796;2022-10-04T07:11:26;11.00;99.90
55203;DHT22;41077;52.956;6.796;2022-10-04T07:27:23;11.30;99.90
55203;DHT22;41077;52.956;6.796;2022-10-04T07:29:55;11.50;99.90
55203;DHT22;41077;52.956;6.796;2022-10-04T07:32:34;11.50;99.90
55203;DHT22;41077;52.956;6.796;2022-10-04T07:40:32;11.70;99.90
55203;DHT22;41077;52.956;6.796;2022-10-04T07:43:05;11.80;99.90
55203;DHT22;41077;52.956;6.796;2022-10-04T07:45:35;11.90;99.90
55203;DHT22;41077;52.956;6.796;2022-10-04T07:48:15;12.00;99.90
55203;DHT22;41077;52.956;6.796;2022-10-04T07:51:10;12.00;99.90
55203;DHT22;41077;52.956;6.796;2022-10-04T08:12:51;12.70;99.90
55203;DHT22;41077;52.956;6.796;2022-10-04T08:21:00;12.90;99.90
55203;DHT22;41077;52.956;6.796;2022-10-04T08:27:00;13.10;99.90
55203;DHT22;41077;52.956;6.796;2022-10-04T08:33:04;13.30;99.90
55203;DHT22;41077;52.956;6.796;2022-10-04T08:35:43;13.30;99.90
55203;DHT22;41077;52.956;6.796;2022-10-04T08:38:32;13.30;99.90
55203;DHT22;41077;52.956;6.796;2022-10-04T08:58:12;13.40;99.90
55203;DHT22;41077;52.956;6.796;2022-10-04T09:06:43;13.70;99.90
55203;DHT22;41077;52.956;6.796;2022-10-04T09:09:39;13.80;99.90
55203;DHT22;41077;52.956;6.796;2022-10-04T09:34:45;14.40;99.90
55203;DHT22;41077;52.956;6.796;2022-10-04T09:43:34;14.50;99.90
55203;DHT22;41077;52.956;6.796;2022-10-04T10:00:40;14.90;99.90
55203;DHT22;41077;52.956;6.796;2022-10-04T10:03:32;15.00;99.90
55203;DHT22;41077;52.956;6.796;2022-10-04T10:12:12;15.10;99.90
55203;DHT22;41077;52.956;6.796;2022-10-04T10:15:21;15.10;99.90
55203;DHT22;41077;52.956;6.796;2022-10-04T10:29:08;15.50;99.90
55203;DHT22;41077;52.956;6.796;2022-10-04T10:37:34;15.60;99.90
55203;DHT22;41077;52.956;6.796;2022-10-04T10:40:11;15.70;99.90
55203;DHT22;41077;52.956;6.796;2022-10-04T10:49:03;15.90;99.90
55203;DHT22;41077;52.956;6.796;2022-10-04T11:05:33;16.10;99.90
55203;DHT22;41077;52.956;6.796;2022-10-04T11:27:43;16.30;99.90
55203;DHT22;41077;52.956;6.796;2022-10-04T11:31:00;16.40;99.90
55203;DHT22;41077;52.956;6.796;2022-10-04T11:38:40;16.40;99.90
55203;DHT22;41077;52.956;6.796;2022-10-04T11:44:13;16.50;99.90
55203;DHT22;41077;52.956;6.796;2022-10-04T11:49:42;16.50;99.90
55203;DHT22;41077;52.956;6.796;2022-10-04T11:58:12;16.60;99.90
55203;DHT22;41077;52.956;6.796;2022-10-04T12:03:40;16.60;99.90
55203;DHT22;41077;52.956;6.796;2022-10-04T12:31:36;16.90;99.90
55203;DHT22;41077;52.956;6.796;2022-10-04T12:48:47;17.00;99.90
55203;DHT22;41077;52.956;6.796;2022-10-04T12:56:45;17.00;99.90
55203;DHT22;41077;52.956;6.796;2022-10-04T13:05:32;17.00;99.90
55203;DHT22;41077;52.956;6.796;2022-10-04T13:11:24;17.00;99.90
55203;DHT22;41077;52.956;6.796;2022-10-04T13:30:20;17.10;99.90
55203;DHT22;41077;52.956;6.796;2022-10-04T13:35:52;17.00;99.90
55203;DHT22;41077;52.956;6.796;2022-10-04T13:38:38;17.10;99.90
55203;DHT22;41077;52.956;6.796;2022-10-04T13:41:23;17.20;99.90
55203;DHT22;41077;52.956;6.796;2022-10-04T13:47:02;17.40;99.90
55203;DHT22;41077;52.956;6.796;2022-10-04T13:52:22;17.40;99.90
55203;DHT22;41077;52.956;6.796;2022-10-04T14:05:35;17.50;99.90
55203;DHT22;41077;52.956;6.796;2022-10-04T14:19:06;17.20;99.90
55203;DHT22;41077;52.956;6.796;2022-10-04T14:21:54;17.20;99.90
55203;DHT22;41077;52.956;6.796;2022-10-04T14:27:19;17.20;99.90
55203;DHT22;41077;52.956;6.796;2022-10-04T14:38:11;17.00;99.90
55203;DHT22;41077;52.956;6.796;2022-10-04T14:43:53;17.10;99.90
55203;DHT22;41077;52.956;6.796;2022-10-04T14:46:41;17.10;99.90
55203;DHT22;41077;52.956;6.796;2022-10-04T14:54:51;17.50;99.90
55203;DHT22;41077;52.956;6.796;2022-10-04T14:58:10;17.50;99.90
55203;DHT22;41077;52.956;6.796;2022-10-04T15:03:43;17.40;99.90
55203;DHT22;41077;52.956;6.796;2022-10-04T15:09:28;17.40;99.90
55203;DHT22;41077;52.956;6.796;2022-10-04T15:12:39;17.30;99.90
55203;DHT22;41077;52.956;6.796;2022-10-04T15:23:29;17.30;99.90
55203;DHT22;41077;52.956;6.796;2022-10-04T15:31:33;17.10;99.90
55203;DHT22;41077;52.956;6.796;2022-10-04T15:42:34;16.70;99.90
55203;DHT22;41077;52.956;6.796;2022-10-04T15:55:58;16.80;99.90
55203;DHT22;41077;52.956;6.796;2022-10-04T16:01:42;16.70;99.90
55203;DHT22;41077;52.956;6.796;2022-10-04T16:10:16;16.50;99.90
55203;DHT22;41077;52.956;6.796;2022-10-04T16:15:29;16.40;99.90
55203;DHT22;41077;52.956;6.796;2022-10-04T16:18:38;16.40;99.90
55203;DHT22;41077;52.956;6.796;2022-10-04T16:25:28;16.20;99.90
55203;DHT22;41077;52.956;6.796;2022-10-04T16:27:21;16.10;99.90
55203;DHT22;41077;52.956;6.796;2022-10-04T16:30:22;16.00;99.90
55203;DHT22;41077;52.956;6.796;2022-10-04T16:36:04;15.80;99.90
55203;DHT22;41077;52.956;6.796;2022-10-04T16:38:36;15.70;99.90
55203;DHT22;41077;52.956;6.796;2022-10-04T16:41:53;15.70;99.90
55203;DHT22;41077;52.956;6.796;2022-10-04T16:44:35;15.60;99.90
55203;DHT22;41077;52.956;6.796;2022-10-04T16:47:28;15.50;99.90
55203;DHT22;41077;52.956;6.796;2022-10-04T16:49:56;15.40;99.90
55203;DHT22;41077;52.956;6.796;2022-10-04T16:52:48;15.30;99.90
55203;DHT22;41077;52.956;6.796;2022-10-04T16:55:53;15.30;99.90
55203;DHT22;41077;52.956;6.796;2022-10-04T17:06:29;15.00;99.90
55203;DHT22;41077;52.956;6.796;2022-10-04T17:09:31;15.00;99.90
55203;DHT22;41077;52.956;6.796;2022-10-04T17:12:32;14.90;99.90
55203;DHT22;41077;52.956;6.796;2022-10-04T17:17:59;14.80;99.90
55203;DHT22;41077;52.956;6.796;2022-10-04T17:28:32;14.70;99.90
55203;DHT22;41077;52.956;6.796;2022-10-04T17:36:20;14.60;99.90
55203;DHT22;41077;52.956;6.796;2022-10-04T17:42:05;14.50;99.90
55203;DHT22;41077;52.956;6.796;2022-10-04T17:48:12;14.40;99.90
55203;DHT22;41077;52.956;6.796;2022-10-04T17:54:15;14.40;99.90
55203;DHT22;41077;52.956;6.796;2022-10-04T17:59:38;14.40;99.90
55203;DHT22;41077;52.956;6.796;2022-10-04T18:05:27;14.40;99.90
55203;DHT22;41077;52.956;6.796;2022-10-04T18:08:02;14.40;99.90
55203;DHT22;41077;52.956;6.796;2022-10-04T18:10:38;14.40;99.90
55203;DHT22;41077;52.956;6.796;2022-10-04T18:13:26;14.40;99.90
55203;DHT22;41077;52.956;6.796;2022-10-04T18:18:40;14.40;99.90
55203;DHT22;41077;52.956;6.796;2022-10-04T18:21:23;14.50;99.90
55203;DHT22;41077;52.956;6.796;2022-10-04T18:26:23;14.50;99.90
55203;DHT22;41077;52.956;6.796;2022-10-04T18:28:51;14.50;99.90
55203;DHT22;41077;52.956;6.796;2022-10-04T18:31:30;14.50;99.90
55203;DHT22;41077;52.956;6.796;2022-10-04T18:34:00;14.50;99.90
55203;DHT22;41077;52.956;6.796;2022-10-04T18:36:30;14.50;99.90
55203;DHT22;41077;52.956;6.796;2022-10-04T18:41:58;14.50;99.90
55203;DHT22;41077;52.956;6.796;2022-10-04T18:44:40;14.50;99.90
55203;DHT22;41077;52.956;6.796;2022-10-04T18:47:18;14.50;99.90
55203;DHT22;41077;52.956;6.796;2022-10-04T18:49:53;14.50;99.90
55203;DHT22;41077;52.956;6.796;2022-10-04T18:52:22;14.50;99.90
55203;DHT22;41077;52.956;6.796;2022-10-04T18:55:12;14.60;99.90
55203;DHT22;41077;52.956;6.796;2022-10-04T18:57:49;14.60;99.90
55203;DHT22;41077;52.956;6.796;2022-10-04T19:00:42;14.60;99.90
55203;DHT22;41077;52.956;6.796;2022-10-04T19:03:47;14.70;99.90
55203;DHT22;41077;52.956;6.796;2022-10-04T19:06:32;14.70;99.90
55203;DHT22;41077;52.956;6.796;2022-10-04T19:09:27;14.80;99.90
55203;DHT22;41077;52.956;6.796;2022-10-04T19:11:58;14.80;99.90
55203;DHT22;41077;52.956;6.796;2022-10-04T19:17:48;14.70;99.90
55203;DHT22;41077;52.956;6.796;2022-10-04T19:21:23;14.70;99.90
55203;DHT22;41077;52.956;6.796;2022-10-04T19:26:31;14.70;99.90
55203;DHT22;41077;52.956;6.796;2022-10-04T19:37:26;14.70;99.90
55203;DHT22;41077;52.956;6.796;2022-10-04T19:43:20;14.80;99.90
55203;DHT22;41077;52.956;6.796;2022-10-04T19:48:49;14.80;99.90
55203;DHT22;41077;52.956;6.796;2022-10-04T19:51:35;14.80;99.90
55203;DHT22;41077;52.956;6.796;2022-10-04T19:54:09;14.80;99.90
55203;DHT22;41077;52.956;6.796;2022-10-04T19:56:44;14.80;99.90
55203;DHT22;41077;52.956;6.796;2022-10-04T19:59:23;14.80;99.90
55203;DHT22;41077;52.956;6.796;2022-10-04T20:01:51;14.80;99.90
55203;DHT22;41077;52.956;6.796;2022-10-04T20:04:17;14.80;99.90
55203;DHT22;41077;52.956;6.796;2022-10-04T20:23:46;15.00;99.90
55203;DHT22;41077;52.956;6.796;2022-10-04T20:26:34;15.00;99.90
55203;DHT22;41077;52.956;6.796;2022-10-04T20:32:07;15.00;99.90
55203;DHT22;41077;52.956;6.796;2022-10-04T20:37:03;15.00;99.90
55203;DHT22;41077;52.956;6.796;2022-10-04T20:50:27;15.00;99.90
55203;DHT22;41077;52.956;6.796;2022-10-04T20:52:56;15.00;99.90
55203;DHT22;41077;52.956;6.796;2022-10-04T20:55:24;15.00;99.90
55203;DHT22;41077;52.956;6.796;2022-10-04T20:57:58;15.00;99.90
55203;DHT22;41077;52.956;6.796;2022-10-04T21:00:25;15.00;99.90
55203;DHT22;41077;52.956;6.796;2022-10-04T21:03:14;15.00;99.90
55203;DHT22;41077;52.956;6.796;2022-10-04T21:05:41;15.10;99.90
55203;DHT22;41077;52.956;6.796;2022-10-04T21:08:33;15.00;99.90
55203;DHT22;41077;52.956;6.796;2022-10-04T21:13:55;15.10;99.90
55203;DHT22;41077;52.956;6.796;2022-10-04T21:16:44;15.10;99.90
55203;DHT22;41077;52.956;6.796;2022-10-04T21:19:41;15.10;99.90
55203;DHT22;41077;52.956;6.796;2022-10-04T21:27:35;15.10;99.90
55203;DHT22;41077;52.956;6.796;2022-10-04T21:30:06;15.10;99.90
55203;DHT22;41077;52.956;6.796;2022-10-04T21:32:34;15.10;99.90
55203;DHT22;41077;52.956;6.796;2022-10-04T21:35:00;15.10;99.90
55203;DHT22;41077;52.956;6.796;2022-10-04T21:37:26;15.00;99.90
55203;DHT22;41077;52.956;6.796;2022-10-04T21:39:51;15.00;99.90
55203;DHT22;41077;52.956;6.796;2022-10-04T21:42:17;15.00;99.90
55203;DHT22;41077;52.956;6.796;2022-10-04T21:44:43;15.00;99.90
55203;DHT22;41077;52.956;6.796;2022-10-04T21:47:09;15.00;99.90
55203;DHT22;41077;52.956;6.796;2022-10-04T21:49:35;14.90;99.90
55203;DHT22;41077;52.956;6.796;2022-10-04T21:52:01;14.90;99.90
55203;DHT22;41077;52.956;6.796;2022-10-04T21:54:27;14.90;99.90
55203;DHT22;41077;52.956;6.796;2022-10-04T21:56:52;14.90;99.90
55203;DHT22;41077;52.956;6.796;2022-10-04T21:59:19;14.90;99.90
55203;DHT22;41077;52.956;6.796;2022-10-04T22:01:45;15.00;99.90
55203;DHT22;41077;52.956;6.796;2022-10-04T22:04:10;15.00;99.90
55203;DHT22;41077;52.956;6.796;2022-10-04T22:06:37;15.00;99.90
55203;DHT22;41077;52.956;6.796;2022-10-04T22:09:03;15.00;99.90
55203;DHT22;41077;52.956;6.796;2022-10-04T22:11:29;15.00;99.90
55203;DHT22;41077;52.956;6.796;2022-10-04T22:13:54;15.00;99.90
55203;DHT22;41077;52.956;6.796;2022-10-04T22:16:20;15.00;99.90
55203;DHT22;41077;52.956;6.796;2022-10-04T22:18:46;15.00;99.90
55203;DHT22;41077;52.956;6.796;2022-10-04T22:21:11;15.10;99.90
55203;DHT22;41077;52.956;6.796;2022-10-04T22:23:39;15.00;99.90
55203;DHT22;41077;52.956;6.796;2022-10-04T22:26:11;15.00;99.90
55203;DHT22;41077;52.956;6.796;2022-10-04T22:28:42;15.10;99.90
55203;DHT22;41077;52.956;6.796;2022-10-04T22:31:17;15.10;99.90
55203;DHT22;41077;52.956;6.796;2022-10-04T22:33:44;15.20;99.90
55203;DHT22;41077;52.956;6.796;2022-10-04T22:41:55;15.30;99.90
55203;DHT22;41077;52.956;6.796;2022-10-04T22:46:56;15.30;99.90
55203;DHT22;41077;52.956;6.796;2022-10-04T22:49:25;15.40;99.90
55203;DHT22;41077;52.956;6.796;2022-10-04T22:51:52;15.40;99.90
55203;DHT22;41077;52.956;6.796;2022-10-04T22:54:21;15.30;99.90
55203;DHT22;41077;52.956;6.796;2022-10-04T22:56:50;15.40;99.90
55203;DHT22;41077;52.956;6.796;2022-10-04T22:59:18;15.40;99.90
55203;DHT22;41077;52.956;6.796;2022-10-04T23:01:44;15.30;99.90
55203;DHT22;41077;52.956;6.796;2022-10-04T23:04:22;15.40;99.90
55203;DHT22;41077;52.956;6.796;2022-10-04T23:06:49;15.40;99.90
55203;DHT22;41077;52.956;6.796;2022-10-04T23:09:15;15.40;99.90
55203;DHT22;41077;52.956;6.796;2022-10-04T23:11:41;15.40;99.90
55203;DHT22;41077;52.956;6.796;2022-10-04T23:14:07;15.40;99.90
55203;DHT22;41077;52.956;6.796;2022-10-04T23:16:33;15.30;99.90
55203;DHT22;41077;52.956;6.796;2022-10-04T23:19:10;15.30;99.90
55203;DHT22;41077;52.956;6.796;2022-10-04T23:21:38;15.30;99.90
55203;DHT22;41077;52.956;6.796;2022-10-04T23:24:22;15.30;99.90
55203;DHT22;41077;52.956;6.796;2022-10-04T23:26:54;15.20;99.90
55203;DHT22;41077;52.956;6.796;2022-10-04T23:31:49;15.30;99.90
55203;DHT22;41077;52.956;6.796;2022-10-04T23:34:18;15.30;99.90
55203;DHT22;41077;52.956;6.796;2022-10-04T23:36:45;15.30;99.90
55203;DHT22;41077;52.956;6.796;2022-10-04T23:39:24;15.30;99.90
55203;DHT22;41077;52.956;6.796;2022-10-04T23:41:52;15.30;99.90
55203;DHT22;41077;52.956;6.796;2022-10-04T23:44:20;15.30;99.90
55203;DHT22;41077;52.956;6.796;2022-10-04T23:46:46;15.40;99.90
55203;DHT22;41077;52.956;6.796;2022-10-04T23:49:14;15.30;99.90
55203;DHT22;41077;52.956;6.796;2022-10-04T23:51:42;15.30;99.90
55203;DHT22;41077;52.956;6.796;2022-10-04T23:54:14;15.30;99.90
55203;DHT22;41077;52.956;6.796;2022-10-04T23:56:40;15.30;99.90
55203;DHT22;41077;52.956;6.796;2022-10-04T23:59:21;15.30;99.90
